createdAt,value
2023-02-16T00:00:56.083Z,89.68
2023-02-16T00:03:27.259Z,84.43
2023-02-16T00:06:16.931Z,177.32
2023-02-16T00:08:48.653Z,147.27
2023-02-16T00:11:43.719Z,113.93
2023-02-16T00:14:13.641Z,75.10
2023-02-16T00:16:42.448Z,82.25
2023-02-16T00:19:22.458Z,73.30
2023-02-16T00:21:52.890Z,67.75
2023-02-16T00:24:21.734Z,58.95
2023-02-16T00:26:50.943Z,65.82
2023-02-16T00:29:25.591Z,58.78
2023-02-16T00:31:55.491Z,87.30
2023-02-16T00:34:29.247Z,110.95
2023-02-16T00:39:27.432Z,94.93
2023-02-16T00:41:59.711Z,76.25
2023-02-16T00:44:38.369Z,133.00
2023-02-16T00:47:30.478Z,101.18
2023-02-16T00:50:01.971Z,127.70
2023-02-16T00:52:31.292Z,115.07
2023-02-16T00:55:01.306Z,185.18
2023-02-16T00:57:35.197Z,124.57
2023-02-16T01:00:09.784Z,111.90
2023-02-16T01:02:40.593Z,124.93
2023-02-16T01:05:09.419Z,82.45
2023-02-16T01:07:56.635Z,78.68
2023-02-16T01:10:44.758Z,81.07
2023-02-16T01:13:14.912Z,72.47
2023-02-16T01:15:44.337Z,80.70
2023-02-16T01:18:19.146Z,117.40
2023-02-16T01:20:48.390Z,92.18
2023-02-16T01:23:17.113Z,119.65
2023-02-16T01:25:45.735Z,126.05
2023-02-16T01:28:25.634Z,152.45
2023-02-16T01:30:54.938Z,138.13
2023-02-16T01:33:23.835Z,157.93
2023-02-16T01:35:54.484Z,124.70
2023-02-16T01:38:26.197Z,149.20
2023-02-16T01:41:00.402Z,131.18
2023-02-16T01:43:49.269Z,98.60
2023-02-16T01:46:50.188Z,117.47
2023-02-16T01:49:21.044Z,104.22
2023-02-16T01:51:59.143Z,111.03
2023-02-16T01:54:34.359Z,115.70
2023-02-16T01:57:27.999Z,105.97
2023-02-16T01:59:56.675Z,86.75
2023-02-16T02:02:34.630Z,96.32
2023-02-16T02:05:36.294Z,89.35
2023-02-16T02:08:30.827Z,98.90
2023-02-16T02:11:15.136Z,67.22
2023-02-16T02:14:00.156Z,83.28
2023-02-16T02:16:32.344Z,74.85
2023-02-16T02:19:01.927Z,60.00
2023-02-16T02:22:33.608Z,80.05
2023-02-16T02:25:41.806Z,67.60
2023-02-16T02:28:25.978Z,85.57
2023-02-16T02:30:59.074Z,85.15
2023-02-16T02:34:02.770Z,64.57
2023-02-16T02:36:31.378Z,81.72
2023-02-16T02:39:18.553Z,89.07
2023-02-16T02:42:05.647Z,118.82
2023-02-16T02:45:05.408Z,130.57
2023-02-16T02:47:44.918Z,82.50
2023-02-16T02:51:13.334Z,110.40
2023-02-16T02:53:49.862Z,75.22
2023-02-16T02:56:38.249Z,105.80
2023-02-16T02:59:29.088Z,148.65
2023-02-16T03:02:02.089Z,137.10
2023-02-16T03:04:32.222Z,129.07
2023-02-16T03:07:03.320Z,127.53
2023-02-16T03:09:32.113Z,81.72
2023-02-16T03:12:21.872Z,85.65
2023-02-16T03:14:59.764Z,129.95
2023-02-16T03:17:56.515Z,99.07
2023-02-16T03:20:43.761Z,67.85
2023-02-16T03:23:31.896Z,89.07
2023-02-16T03:26:18.716Z,68.32
2023-02-16T03:29:07.608Z,69.25
2023-02-16T03:31:41.512Z,63.05
2023-02-16T03:34:11.332Z,72.50
2023-02-16T03:36:44.249Z,111.72
2023-02-16T03:39:13.544Z,97.40
2023-02-16T03:41:49.884Z,120.05
2023-02-16T03:44:19.154Z,147.77
2023-02-16T03:46:50.344Z,226.38
2023-02-16T03:49:20.058Z,198.13
2023-02-16T03:51:51.490Z,180.18
2023-02-16T03:54:20.256Z,180.20
2023-02-16T03:56:48.693Z,185.25
2023-02-16T03:59:17.572Z,153.02
2023-02-16T04:01:46.462Z,168.20
2023-02-16T04:04:15.997Z,151.05
2023-02-16T04:06:44.571Z,173.20
2023-02-16T04:09:13.166Z,157.50
2023-02-16T04:12:00.126Z,175.63
2023-02-16T04:14:29.203Z,178.05
2023-02-16T04:17:00.244Z,176.32
2023-02-16T04:19:28.958Z,223.63
2023-02-16T04:21:57.499Z,208.30
2023-02-16T04:24:26.459Z,222.38
2023-02-16T04:26:55.134Z,241.55
2023-02-16T04:29:24.032Z,146.20
2023-02-16T04:31:52.726Z,170.63
2023-02-16T04:34:21.545Z,183.57
2023-02-16T04:36:50.305Z,111.15
2023-02-16T04:39:19.286Z,84.25
2023-02-16T04:41:48.143Z,105.18
2023-02-16T04:44:16.916Z,159.80
2023-02-16T04:46:45.934Z,170.15
2023-02-16T04:49:15.132Z,114.72
2023-02-16T04:51:44.029Z,146.02
2023-02-16T04:54:13.143Z,107.05
2023-02-16T04:56:45.807Z,95.05
2023-02-16T04:59:16.108Z,107.20
2023-02-16T05:01:46.857Z,73.95
2023-02-16T05:04:17.138Z,90.75
2023-02-16T05:06:46.589Z,97.00
2023-02-16T05:09:15.307Z,96.53
2023-02-16T05:12:02.800Z,58.85
2023-02-16T05:14:43.352Z,82.80
2023-02-16T05:17:19.591Z,88.85
2023-02-16T05:19:51.988Z,62.58
2023-02-16T05:22:21.543Z,61.13
2023-02-16T05:24:50.604Z,63.85
2023-02-16T05:27:24.909Z,72.63
2023-02-16T05:32:25.366Z,42.95
2023-02-16T05:34:57.235Z,47.95
2023-02-16T05:37:26.039Z,34.17
2023-02-16T05:39:54.743Z,37.63
2023-02-16T05:42:23.374Z,45.15
2023-02-16T05:44:52.034Z,48.58
2023-02-16T05:47:22.479Z,51.65
2023-02-16T05:49:51.572Z,55.78
2023-02-16T05:52:20.244Z,58.58
2023-02-16T05:54:48.689Z,47.03
2023-02-16T05:57:17.329Z,54.15
2023-02-16T05:59:46.287Z,54.63
2023-02-16T06:02:15.410Z,50.47
2023-02-16T06:04:44.110Z,45.55
2023-02-16T06:07:14.827Z,44.00
2023-02-16T06:09:44.286Z,43.25
2023-02-16T06:12:13.697Z,38.58
2023-02-16T06:14:42.339Z,39.13
2023-02-16T06:17:11.284Z,47.38
2023-02-16T06:19:40.130Z,55.38
2023-02-16T06:22:08.710Z,44.50
2023-02-16T06:24:39.948Z,37.97
2023-02-16T06:27:08.684Z,43.88
2023-02-16T06:29:37.319Z,33.42
2023-02-16T06:32:06.216Z,34.15
2023-02-16T06:34:34.943Z,39.35
2023-02-16T06:37:03.729Z,52.03
2023-02-16T06:39:32.225Z,44.15
2023-02-16T06:42:00.865Z,38.95
2023-02-16T06:44:29.606Z,36.67
2023-02-16T06:46:58.645Z,43.70
2023-02-16T06:49:28.026Z,43.33
2023-02-16T06:51:56.931Z,29.95
2023-02-16T06:54:25.688Z,33.78
2023-02-16T06:56:54.280Z,27.13
2023-02-16T06:59:23.018Z,29.73
2023-02-16T07:01:51.683Z,28.90
2023-02-16T07:04:23.323Z,30.38
2023-02-16T07:06:54.632Z,28.38
2023-02-16T07:09:23.757Z,36.05
2023-02-16T07:11:52.487Z,41.95
2023-02-16T07:14:21.517Z,38.83
2023-02-16T07:16:50.399Z,37.30
2023-02-16T07:19:19.096Z,30.90
2023-02-16T07:21:47.767Z,35.72
2023-02-16T07:24:16.332Z,25.50
2023-02-16T07:26:47.987Z,32.95
2023-02-16T07:29:16.812Z,38.03
2023-02-16T07:31:45.784Z,29.85
2023-02-16T07:34:14.432Z,32.42
2023-02-16T07:36:43.192Z,38.35
2023-02-16T07:39:12.616Z,32.60
2023-02-16T07:41:41.214Z,33.13
2023-02-16T07:44:10.262Z,35.22
2023-02-16T07:46:39.065Z,33.65
2023-02-16T07:49:07.899Z,22.92
2023-02-16T07:51:36.673Z,26.38
2023-02-16T07:54:05.453Z,27.90
2023-02-16T07:56:36.700Z,32.30
2023-02-16T07:59:05.467Z,29.92
2023-02-16T08:01:35.144Z,29.15
2023-02-16T08:04:03.721Z,29.05
2023-02-16T08:06:32.412Z,24.48
2023-02-16T08:09:01.078Z,28.95
2023-02-16T08:11:29.918Z,36.63
2023-02-16T08:14:01.056Z,29.92
2023-02-16T08:16:30.931Z,26.42
2023-02-16T08:19:01.200Z,27.75
2023-02-16T08:21:32.801Z,31.65
2023-02-16T08:24:04.201Z,24.10
2023-02-16T08:26:42.402Z,29.92
2023-02-16T08:29:13.236Z,31.08
2023-02-16T08:31:48.569Z,29.42
2023-02-16T08:34:19.515Z,28.88
2023-02-16T08:36:53.946Z,29.58
2023-02-16T08:39:33.681Z,22.58
2023-02-16T08:42:02.801Z,30.60
2023-02-16T08:44:34.235Z,30.50
2023-02-16T08:47:03.499Z,31.25
2023-02-16T08:49:35.012Z,34.22
2023-02-16T08:52:05.046Z,36.88
2023-02-16T08:54:34.025Z,33.40
2023-02-16T08:57:03.727Z,35.03
2023-02-16T08:59:33.828Z,40.33
2023-02-16T09:02:02.919Z,34.17
2023-02-16T09:04:31.785Z,31.05
2023-02-16T09:07:01.281Z,34.20
2023-02-16T09:09:33.104Z,29.08
2023-02-16T09:12:02.235Z,46.10
2023-02-16T09:14:30.946Z,42.35
2023-02-16T09:16:59.684Z,24.58
2023-02-16T09:19:28.991Z,26.77
2023-02-16T09:22:00.178Z,41.28
2023-02-16T09:24:29.068Z,39.95
2023-02-16T09:26:57.675Z,38.35
2023-02-16T09:29:26.483Z,34.03
2023-02-16T09:31:57.771Z,47.63
2023-02-16T09:34:28.343Z,34.13
2023-02-16T09:36:57.350Z,34.38
2023-02-16T09:39:26.058Z,40.22
2023-02-16T09:42:34.128Z,43.45
2023-02-16T09:45:18.909Z,33.95
2023-02-16T09:50:50.261Z,40.20
2023-02-16T09:53:23.435Z,39.55
2023-02-16T09:56:03.852Z,31.67
2023-02-16T09:58:54.998Z,34.55
2023-02-16T10:01:45.728Z,44.03
2023-02-16T10:04:36.256Z,45.97
2023-02-16T10:07:43.564Z,56.70
2023-02-16T10:10:17.315Z,43.17
2023-02-16T10:12:56.655Z,45.60
2023-02-16T10:15:31.363Z,62.80
2023-02-16T10:18:09.457Z,47.42
2023-02-16T10:20:45.047Z,82.60
2023-02-16T10:23:35.054Z,47.83
2023-02-16T10:26:14.916Z,75.63
2023-02-16T10:28:51.075Z,61.67
2023-02-16T10:31:25.742Z,191.20
2023-02-16T10:34:19.285Z,98.18
2023-02-16T10:37:32.661Z,76.70
2023-02-16T10:40:42.621Z,54.55
2023-02-16T10:43:22.226Z,48.60
2023-02-16T10:45:57.441Z,44.22
2023-02-16T10:48:27.101Z,66.25
2023-02-16T10:51:17.564Z,58.67
2023-02-16T10:54:12.806Z,69.60
2023-02-16T10:57:39.803Z,104.80
2023-02-16T11:00:14.103Z,50.10
2023-02-16T11:05:28.571Z,27.83
2023-02-16T11:08:02.136Z,38.50
2023-02-16T11:10:51.725Z,62.55
2023-02-16T11:13:38.770Z,44.92
2023-02-16T11:16:14.598Z,65.55
2023-02-16T11:18:47.527Z,66.13
2023-02-16T11:21:17.530Z,46.15
2023-02-16T11:24:02.848Z,42.83
2023-02-16T11:26:32.175Z,43.95
2023-02-16T11:29:19.958Z,46.45
2023-02-16T11:31:49.005Z,45.30
2023-02-16T11:34:34.270Z,53.80
2023-02-16T11:37:07.875Z,71.72
2023-02-16T11:39:40.843Z,50.58
2023-02-16T11:42:28.270Z,58.58
2023-02-16T11:45:00.337Z,65.07
2023-02-16T11:47:35.518Z,48.13
2023-02-16T11:50:29.702Z,47.22
2023-02-16T11:53:24.245Z,47.42
2023-02-16T11:56:28.181Z,41.55
2023-02-16T11:59:09.184Z,44.10
2023-02-16T12:02:06.083Z,42.92
2023-02-16T12:04:34.760Z,56.80
2023-02-16T12:07:28.763Z,66.60
2023-02-16T12:10:11.227Z,79.40
2023-02-16T12:13:01.668Z,76.78
2023-02-16T12:15:50.725Z,59.80
2023-02-16T12:18:35.044Z,55.33
2023-02-16T12:21:19.244Z,79.03
2023-02-16T12:24:06.222Z,91.82
2023-02-16T12:26:43.797Z,61.83
2023-02-16T12:29:31.597Z,57.75
2023-02-16T12:32:16.864Z,57.38
2023-02-16T12:34:58.353Z,51.58
2023-02-16T12:37:40.640Z,53.35
2023-02-16T12:40:27.944Z,57.08
2023-02-16T12:43:04.818Z,69.82
2023-02-16T12:45:39.484Z,79.38
2023-02-16T12:48:30.143Z,101.07
2023-02-16T12:51:03.569Z,161.13
2023-02-16T12:53:42.642Z,160.48
2023-02-16T12:56:20.537Z,164.07
2023-02-16T12:58:57.058Z,188.50
2023-02-16T13:01:34.579Z,208.52
2023-02-16T13:04:15.524Z,204.13
2023-02-16T13:06:56.519Z,168.25
2023-02-16T13:09:38.764Z,165.27
2023-02-16T13:12:29.691Z,269.83
2023-02-16T13:15:28.746Z,403.35
2023-02-16T13:18:02.496Z,520.17
2023-02-16T13:20:32.580Z,378.80
2023-02-16T13:23:16.610Z,326.17
2023-02-16T13:26:05.407Z,310.42
2023-02-16T13:29:11.823Z,316.63
2023-02-16T13:31:50.129Z,271.77
2023-02-16T13:34:19.316Z,262.75
2023-02-16T13:37:19.052Z,256.50
2023-02-16T13:39:58.697Z,252.07
2023-02-16T13:42:41.611Z,206.32
2023-02-16T13:45:22.690Z,196.00
2023-02-16T13:47:54.517Z,203.10
2023-02-16T13:50:23.254Z,154.77
2023-02-16T13:52:54.294Z,158.38
2023-02-16T13:55:34.496Z,212.02
2023-02-16T13:58:25.988Z,158.60
2023-02-16T14:00:55.409Z,128.35
2023-02-16T14:03:24.474Z,139.43
2023-02-16T14:05:55.874Z,108.80
2023-02-16T14:08:28.947Z,140.40
2023-02-16T14:11:04.731Z,132.93
2023-02-16T14:13:47.636Z,153.52
2023-02-16T14:16:23.262Z,129.75
2023-02-16T14:19:25.949Z,124.20
2023-02-16T14:21:54.948Z,169.50
2023-02-16T14:24:26.750Z,194.63
2023-02-16T14:26:55.790Z,315.92
2023-02-16T14:29:33.702Z,285.42
2023-02-16T14:32:18.251Z,289.55
2023-02-16T14:34:57.029Z,297.25
2023-02-16T14:37:31.991Z,276.60
2023-02-16T14:40:36.281Z,363.52
2023-02-16T14:43:19.703Z,498.33
2023-02-16T14:45:52.374Z,349.15
2023-02-16T14:48:42.560Z,286.58
2023-02-16T14:51:39.790Z,273.30
2023-02-16T14:54:41.094Z,190.75
2023-02-16T14:57:25.054Z,164.43
2023-02-16T15:00:15.898Z,166.07
2023-02-16T15:03:08.129Z,193.13
2023-02-16T15:05:38.684Z,162.10
2023-02-16T15:08:25.062Z,220.60
2023-02-16T15:10:54.834Z,231.30
2023-02-16T15:13:32.745Z,200.45
2023-02-16T15:16:04.559Z,133.15
2023-02-16T15:18:48.579Z,119.93
2023-02-16T15:21:24.838Z,141.07
2023-02-16T15:23:58.915Z,115.22
2023-02-16T15:26:33.899Z,93.03
2023-02-16T15:29:25.584Z,101.72
2023-02-16T15:31:58.897Z,98.43
2023-02-16T15:34:37.149Z,97.55
2023-02-16T15:37:34.568Z,101.00
2023-02-16T15:40:26.358Z,112.88
2023-02-16T15:42:56.694Z,139.02
2023-02-16T15:45:30.206Z,141.07
2023-02-16T15:48:16.883Z,124.68
2023-02-16T15:50:47.920Z,154.88
2023-02-16T15:53:43.645Z,172.55
2023-02-16T15:56:18.453Z,201.15
2023-02-16T15:58:48.630Z,195.55
2023-02-16T16:01:31.570Z,183.98
2023-02-16T16:04:03.401Z,147.70
2023-02-16T16:06:38.211Z,127.82
2023-02-16T16:09:09.096Z,151.00
2023-02-16T16:11:38.749Z,224.73
2023-02-16T16:14:08.128Z,259.17
2023-02-16T16:16:37.687Z,213.60
2023-02-16T16:19:20.328Z,255.43
2023-02-16T16:21:57.548Z,398.63
2023-02-16T16:24:39.871Z,441.33
2023-02-16T16:27:12.554Z,270.63
2023-02-16T16:29:45.462Z,175.15
2023-02-16T16:32:23.703Z,176.80
2023-02-16T16:34:53.025Z,166.00
2023-02-16T16:37:32.210Z,133.32
2023-02-16T16:40:21.418Z,145.88
2023-02-16T16:43:16.741Z,146.90
2023-02-16T16:45:46.937Z,122.43
2023-02-16T16:48:15.394Z,147.15
2023-02-16T16:50:44.176Z,181.35
2023-02-16T16:53:33.710Z,160.40
2023-02-16T16:56:02.855Z,101.82
2023-02-16T16:58:31.534Z,136.93
2023-02-16T17:01:02.217Z,107.00
2023-02-16T17:03:31.443Z,109.57
2023-02-16T17:06:00.210Z,74.97
2023-02-16T17:08:28.971Z,75.47
2023-02-16T17:10:57.780Z,83.65
2023-02-16T17:13:28.283Z,124.00
2023-02-16T17:15:58.847Z,129.80
2023-02-16T17:18:28.052Z,93.85
2023-02-16T17:20:58.593Z,119.72
2023-02-16T17:23:29.457Z,140.05
2023-02-16T17:25:58.658Z,121.00
2023-02-16T17:28:29.989Z,133.02
2023-02-16T17:31:01.818Z,157.25
2023-02-16T17:33:30.706Z,144.07
2023-02-16T17:35:59.778Z,152.93
2023-02-16T17:38:28.680Z,145.68
2023-02-16T17:40:58.702Z,143.35
2023-02-16T17:43:28.242Z,161.25
2023-02-16T17:46:00.324Z,158.73
2023-02-16T17:48:31.314Z,171.98
2023-02-16T17:50:59.982Z,162.40
2023-02-16T17:53:29.537Z,258.00
2023-02-16T17:55:59.028Z,200.38
2023-02-16T17:58:27.847Z,178.10
2023-02-16T18:00:56.602Z,138.43
2023-02-16T18:03:27.582Z,138.05
2023-02-16T18:05:56.894Z,143.82
2023-02-16T18:08:26.234Z,100.20
2023-02-16T18:11:04.050Z,82.57
2023-02-16T18:13:34.811Z,93.88
2023-02-16T18:16:07.840Z,84.70
2023-02-16T18:18:42.752Z,119.53
2023-02-16T18:21:14.017Z,105.63
2023-02-16T18:23:42.843Z,263.33
2023-02-16T18:26:15.726Z,163.68
2023-02-16T18:28:46.731Z,118.70
2023-02-16T18:31:15.738Z,75.63
2023-02-16T18:33:44.717Z,85.72
2023-02-16T18:36:14.329Z,107.18
2023-02-16T18:38:44.362Z,80.30
2023-02-16T18:41:14.401Z,117.10
2023-02-16T18:43:43.375Z,70.38
2023-02-16T18:46:12.755Z,73.68
2023-02-16T18:48:42.351Z,86.50
2023-02-16T18:51:12.761Z,102.72
2023-02-16T18:53:41.784Z,100.28
2023-02-16T18:56:12.751Z,150.82
2023-02-16T18:58:41.623Z,176.95
2023-02-16T19:01:28.978Z,192.38
2023-02-16T19:03:59.048Z,159.15
2023-02-16T19:06:27.899Z,197.30
2023-02-16T19:08:59.151Z,172.73
2023-02-16T19:11:32.113Z,186.65
2023-02-16T19:14:01.033Z,145.90
2023-02-16T19:16:29.752Z,177.82
2023-02-16T19:19:01.411Z,143.65
2023-02-16T19:21:30.148Z,188.07
2023-02-16T19:23:59.028Z,175.85
2023-02-16T19:26:27.895Z,197.93
2023-02-16T19:28:56.629Z,160.85
2023-02-16T19:31:29.173Z,167.70
2023-02-16T19:33:59.849Z,164.80
2023-02-16T19:36:32.291Z,158.13
2023-02-16T19:39:02.415Z,136.38
2023-02-16T19:41:37.126Z,141.73
2023-02-16T19:44:06.073Z,136.10
2023-02-16T19:46:35.344Z,115.47
2023-02-16T19:49:04.625Z,110.18
2023-02-16T19:51:33.648Z,101.28
2023-02-16T19:54:04.725Z,88.30
2023-02-16T19:56:33.936Z,108.80
2023-02-16T19:59:02.769Z,97.85
2023-02-16T20:01:31.963Z,129.15
2023-02-16T20:04:01.769Z,115.95
2023-02-16T20:06:31.865Z,166.68
2023-02-16T20:09:01.901Z,169.15
2023-02-16T20:11:31.304Z,125.30
2023-02-16T20:14:00.755Z,150.32
2023-02-16T20:16:30.467Z,118.18
2023-02-16T20:19:00.231Z,111.50
2023-02-16T20:21:30.829Z,94.30
2023-02-16T20:24:03.278Z,109.68
2023-02-16T20:26:38.288Z,126.72
2023-02-16T20:29:08.886Z,78.63
2023-02-16T20:31:58.728Z,86.57
2023-02-16T20:34:28.759Z,58.15
2023-02-16T20:36:57.585Z,69.40
2023-02-16T20:39:26.267Z,57.22
2023-02-16T20:41:59.146Z,54.33
2023-02-16T20:44:28.189Z,77.65
2023-02-16T20:46:57.272Z,76.43
2023-02-16T20:49:25.977Z,97.60
2023-02-16T20:51:56.923Z,73.05
2023-02-16T20:54:25.584Z,87.60
2023-02-16T20:56:54.279Z,70.65
2023-02-16T20:59:23.227Z,57.95
2023-02-16T21:01:52.954Z,79.15
2023-02-16T21:04:22.041Z,68.07
2023-02-16T21:06:50.935Z,57.53
2023-02-16T21:09:19.653Z,75.28
2023-02-16T21:11:48.480Z,54.78
2023-02-16T21:14:17.068Z,64.22
2023-02-16T21:16:45.866Z,66.25
2023-02-16T21:19:22.921Z,57.05
2023-02-16T21:21:53.385Z,63.85
2023-02-16T21:24:22.377Z,70.78
2023-02-16T21:26:51.188Z,83.18
2023-02-16T21:29:20.023Z,81.90
2023-02-16T21:31:48.700Z,73.97
2023-02-16T21:34:17.501Z,75.97
2023-02-16T21:36:46.285Z,95.28
2023-02-16T21:39:15.083Z,65.68
2023-02-16T21:41:43.904Z,49.85
2023-02-16T21:44:18.725Z,52.38
2023-02-16T21:46:48.863Z,59.10
2023-02-16T21:49:20.130Z,54.42
2023-02-16T21:51:49.885Z,76.38
2023-02-16T21:54:43.089Z,66.90
2023-02-16T21:57:11.826Z,74.35
2023-02-16T21:59:40.386Z,72.22
2023-02-16T22:02:11.543Z,69.35
2023-02-16T22:04:40.243Z,79.50
2023-02-16T22:07:09.164Z,87.72
2023-02-16T22:09:37.948Z,79.85
2023-02-16T22:12:12.525Z,67.47
2023-02-16T22:14:41.306Z,62.45
2023-02-16T22:17:09.901Z,86.32
2023-02-16T22:19:38.693Z,83.13
2023-02-16T22:22:07.401Z,86.07
2023-02-16T22:24:36.112Z,82.72
2023-02-16T22:27:04.959Z,77.63
2023-02-16T22:29:33.523Z,51.20
2023-02-16T22:32:02.374Z,50.20
2023-02-16T22:34:31.168Z,64.20
2023-02-16T22:37:02.619Z,57.15
2023-02-16T22:39:32.108Z,61.40
2023-02-16T22:42:00.968Z,70.13
2023-02-16T22:44:29.447Z,59.85
2023-02-16T22:46:58.509Z,36.97
2023-02-16T22:49:27.326Z,61.30
2023-02-16T22:51:56.068Z,98.55
2023-02-16T22:54:25.409Z,73.15
2023-02-16T22:56:54.111Z,65.25
2023-02-16T22:59:22.912Z,64.57
2023-02-16T23:01:52.214Z,38.58
2023-02-16T23:04:20.999Z,46.05
2023-02-16T23:06:49.801Z,81.53
2023-02-16T23:09:21.603Z,76.38
2023-02-16T23:11:51.207Z,80.97
2023-02-16T23:14:20.307Z,79.15
2023-02-16T23:16:52.289Z,81.47
2023-02-16T23:19:24.101Z,73.18
2023-02-16T23:21:53.249Z,52.17
2023-02-16T23:24:23.902Z,61.10
2023-02-16T23:26:53.786Z,65.43
2023-02-16T23:29:22.773Z,62.22
2023-02-16T23:31:52.610Z,91.07
2023-02-16T23:34:21.688Z,70.25
2023-02-16T23:36:50.470Z,75.78
2023-02-16T23:39:19.499Z,80.75
2023-02-16T23:41:48.270Z,56.50
2023-02-16T23:44:16.782Z,64.32
2023-02-16T23:46:45.840Z,51.30
2023-02-16T23:49:14.452Z,71.70
2023-02-16T23:51:43.189Z,99.43
2023-02-16T23:54:12.146Z,70.72
2023-02-16T23:56:41.969Z,150.68
2023-02-16T23:59:10.695Z,132.35
